Time;durP1;ratioP1;P1;durP2;ratioP2;P2;SDS_P1;SDS_P2;PMS_P1;PMS_P2;Temp;Humidity;BMP_temperature;BMP_pressure;BME280_temperature;BME280_humidity;BME280_pressure;Samples;Min_cycle;Max_cycle;Signal;HPM_P1;HPM_P2
2023/03/27 00:01:47;;;;;;;7.07;1.30;;;;;;;-148.88;96.83;76866.09;5083245;28;20017;-79
2023/03/27 00:04:14;;;;;;;7.22;1.63;;;;;;;-148.88;96.03;76853.91;5065023;28;20044;-79
2023/03/27 00:06:39;;;;;;;5.80;0.80;;;;;;;-148.88;96.98;76874.22;5057840;28;20047;-78
2023/03/27 00:09:07;;;;;;;7.30;1.25;;;;;;;-148.88;97.19;76878.28;5076776;28;20029;-78
2023/03/27 00:11:33;;;;;;;5.97;1.50;;;;;;;-148.88;97.38;76894.56;5077377;28;20103;-78
2023/03/27 00:13:58;;;;;;;6.40;1.50;;;;;;;-148.88;97.34;76896.59;5079803;28;20392;-78
2023/03/27 00:16:25;;;;;;;7.55;1.55;;;;;;;-148.88;97.63;76902.69;5079791;28;20032;-79
2023/03/27 00:18:51;;;;;;;10.02;1.27;;;;;;;-148.88;98.29;76923.00;5083275;28;20028;-79
2023/03/27 00:21:17;;;;;;;10.35;1.38;;;;;;;-148.88;97.80;76912.84;5064478;28;20020;-78
2023/03/27 00:23:42;;;;;;;6.90;1.25;;;;;;;-148.88;98.84;76935.19;5083910;28;20032;-79
2023/03/27 00:26:09;;;;;;;8.75;1.40;;;;;;;-148.88;98.60;76933.16;5084080;28;20036;-78
2023/03/27 00:28:35;;;;;;;4.95;1.20;;;;;;;-148.88;97.44;76918.94;5083394;28;20036;-79
2023/03/27 00:31:00;;;;;;;6.18;1.55;;;;;;;-148.88;98.79;76935.19;5083775;28;20103;-78
2023/03/27 00:33:26;;;;;;;3.50;1.00;;;;;;;-148.88;98.05;76931.13;5065928;28;20482;-79
2023/03/27 00:35:52;;;;;;;7.60;1.50;;;;;;;-148.88;98.46;76931.13;5066193;28;20050;-78
2023/03/27 00:38:18;;;;;;;11.00;1.42;;;;;;;-148.88;98.53;76927.06;5066095;28;20077;-79
2023/03/27 00:40:46;;;;;;;11.13;1.38;;;;;;;-148.88;98.44;76939.25;5084394;28;20031;-79
2023/03/27 00:43:33;;;;;;;8.07;1.95;;;;;;;-148.88;98.24;76939.25;5060053;28;20021;-78
2023/03/27 00:46:02;;;;;;;12.18;1.40;;;;;;;-148.88;98.81;76949.41;5057807;28;20053;-78
2023/03/27 00:48:31;;;;;;;7.30;1.90;;;;;;;-148.88;99.26;76951.44;5076757;28;20156;-78
2023/03/27 00:50:57;;;;;;;9.77;1.10;;;;;;;-148.88;99.55;76961.59;5058095;28;20028;-78
2023/03/27 00:53:28;;;;;;;5.93;1.65;;;;;;;-148.88;98.65;76951.44;5067352;28;20016;-79
2023/03/27 00:55:57;;;;;;;3.67;1.05;;;;;;;-148.88;100.00;76975.81;5084797;28;20021;-79
2023/03/27 00:58:40;;;;;;;11.00;2.03;;;;;;;-148.88;99.54;76971.75;5084574;28;20086;-79
2023/03/27 01:01:08;;;;;;;1.88;1.08;;;;;;;-148.88;100.00;76983.94;5085188;28;20025;-79
2023/03/27 01:03:34;;;;;;;10.70;1.33;;;;;;;-148.88;99.58;76975.81;5084444;28;20024;-79
2023/03/27 01:06:01;;;;;;;7.70;1.20;;;;;;;-148.88;99.11;76975.81;5083583;28;20020;-79
2023/03/27 01:08:32;;;;;;;8.13;1.90;;;;;;;-148.88;100.00;76992.06;5084719;28;20076;-79
2023/03/27 01:11:09;;;;;;;10.68;1.10;;;;;;;-148.88;100.00;76998.16;5084463;28;20031;-79
2023/03/27 01:14:07;;;;;;;10.38;1.45;;;;;;;-148.88;99.82;76992.06;5066311;28;20028;-79
2023/03/27 01:16:54;;;;;;;7.95;2.05;;;;;;;-148.88;100.00;76998.16;5051036;28;20028;-78
2023/03/27 01:19:44;;;;;;;6.90;0.95;;;;;;;-148.88;100.00;77012.41;5061070;28;20020;-78
2023/03/27 01:22:46;;;;;;;4.40;0.82;;;;;;;-148.88;100.00;77008.34;5056562;28;20074;-78
2023/03/27 01:25:39;;;;;;;8.13;1.42;;;;;;;-148.88;99.86;77004.25;5057229;28;20031;-78
2023/03/27 01:28:31;;;;;;;5.53;1.10;;;;;;;-148.88;99.42;77006.31;5085055;28;20040;-79
2023/03/27 01:31:15;;;;;;;8.35;1.02;;;;;;;-148.88;98.75;77002.22;5088531;28;20029;-79
2023/03/27 01:34:00;;;;;;;6.20;1.38;;;;;;;-148.88;98.75;77000.19;5088453;28;20028;-79
2023/03/27 01:36:33;;;;;;;8.50;1.38;;;;;;;-148.88;98.77;77012.41;5088644;28;20036;-79
2023/03/27 01:39:11;;;;;;;9.13;1.13;;;;;;;-148.88;98.38;77004.25;5069818;28;20048;-79
2023/03/27 01:41:47;;;;;;;4.18;1.27;;;;;;;-148.88;98.94;77020.53;5087761;28;20055;-79
2023/03/27 01:44:40;;;;;;;7.43;0.90;;;;;;;-148.88;99.25;77020.53;5087665;28;20036;-79
2023/03/27 01:47:13;;;;;;;2.75;1.20;;;;;;;-148.88;98.99;77024.59;5088438;28;20123;-79
2023/03/27 01:49:59;;;;;;;6.38;1.13;;;;;;;-148.88;99.08;77032.72;5069846;28;20132;-79
2023/03/27 01:52:31;;;;;;;13.38;1.65;;;;;;;-148.88;98.84;77028.66;5069618;28;20052;-79
2023/03/27 01:55:03;;;;;;;7.78;1.25;;;;;;;-148.88;99.09;77030.69;5085619;28;20032;-78
2023/03/27 01:57:40;;;;;;;5.38;1.52;;;;;;;-148.88;98.63;77026.63;5059379;28;20082;-78
2023/03/27 02:00:14;;;;;;;7.00;1.25;;;;;;;-148.88;99.04;77034.75;5078262;28;20024;-78
2023/03/27 02:02:43;;;;;;;3.80;1.13;;;;;;;-148.88;99.13;77038.81;5066906;28;20064;-79
2023/03/27 02:05:16;;;;;;;6.25;1.58;;;;;;;-148.88;99.08;77040.84;5087840;28;20041;-79
2023/03/27 02:07:50;;;;;;;4.25;0.82;;;;;;;-148.88;98.99;77044.91;5088288;28;20028;-79
2023/03/27 02:10:21;;;;;;;8.43;1.10;;;;;;;-148.88;98.73;77051.00;5087778;28;20024;-79
2023/03/27 02:12:58;;;;;;;5.38;1.25;;;;;;;-148.88;98.44;77046.94;5069774;28;20027;-79
2023/03/27 02:15:30;;;;;;;8.10;1.48;;;;;;;-148.88;98.75;77044.91;5087848;28;20029;-79
2023/03/27 02:18:05;;;;;;;4.78;0.90;;;;;;;-148.88;97.95;77040.84;5069035;28;20028;-79
2023/03/27 02:20:36;;;;;;;5.15;1.50;;;;;;;-148.88;97.42;77040.84;5068615;28;20069;-79
2023/03/27 02:23:02;;;;;;;4.57;0.98;;;;;;;-148.88;97.66;77053.03;5086127;28;20491;-79
2023/03/27 02:25:37;;;;;;;3.20;1.13;;;;;;;-148.88;97.99;77057.09;5086753;28;20367;-79
2023/03/27 02:28:30;;;;;;;3.17;1.30;;;;;;;-148.88;98.55;77067.25;5087413;28;20458;-79
2023/03/27 02:31:35;;;;;;;8.98;1.55;;;;;;;-148.88;98.46;77077.41;5067657;28;20024;-79
2023/03/27 02:34:20;;;;;;;10.50;1.15;;;;;;;-148.88;98.55;77073.34;5042574;28;20146;-78
2023/03/27 02:37:15;;;;;;;2.72;0.93;;;;;;;-148.88;99.32;77093.66;5081059;28;20405;-79
2023/03/27 02:40:09;;;;;;;4.22;1.08;;;;;;;-148.88;98.64;77085.53;5068547;28;20020;-79
2023/03/27 02:43:10;;;;;;;9.18;1.38;;;;;;;-148.88;100.00;77109.94;5088086;28;20039;-79
2023/03/27 02:45:47;;;;;;;4.78;1.20;;;;;;;-148.88;100.00;77118.06;5069102;28;20025;-79
2023/03/27 02:48:23;;;;;;;2.58;1.08;;;;;;;-148.88;100.00;77142.44;5069225;28;20142;-79
2023/03/27 02:50:55;;;;;;;2.95;0.75;;;;;;;-148.88;100.00;77140.41;5086773;28;20024;-79
2023/03/27 02:53:24;;;;;;;8.18;1.30;;;;;;;-148.88;100.00;77146.50;5068722;28;20039;-79
2023/03/27 02:56:02;;;;;;;11.50;1.48;;;;;;;-148.88;100.00;77150.56;5085974;28;20364;-79
2023/03/27 02:58:36;;;;;;;5.28;1.25;;;;;;;-148.88;100.00;77150.56;5086073;28;20020;-79
2023/03/27 03:01:03;;;;;;;3.72;1.10;;;;;;;-148.88;100.00;77162.75;5086044;28;20024;-79
2023/03/27 03:06:31;;;;;;;15.05;1.48;;;;;;;-148.88;100.00;77166.81;5060877;28;20140;-85
2023/03/27 03:09:04;;;;;;;9.18;1.20;;;;;;;-148.88;100.00;77170.88;5062666;28;20025;-85
2023/03/27 03:11:38;;;;;;;7.60;1.27;;;;;;;-148.88;100.00;77174.94;5061850;28;20047;-84
2023/03/27 03:14:06;;;;;;;8.02;1.23;;;;;;;-148.88;100.00;77181.03;5061268;28;20040;-85
2023/03/27 03:16:36;;;;;;;7.55;2.08;;;;;;;-148.88;100.00;77174.94;5060991;28;20491;-84
2023/03/27 03:19:07;;;;;;;11.68;1.67;;;;;;;-148.88;100.00;77183.06;5063552;28;20060;-84
2023/03/27 03:21:49;;;;;;;3.20;0.90;;;;;;;-148.88;100.00;77183.06;5061068;28;20013;-85
2023/03/27 03:24:20;;;;;;;9.65;1.10;;;;;;;-148.88;100.00;77164.78;5052710;28;20025;-83
2023/03/27 03:26:52;;;;;;;7.20;1.10;;;;;;;-148.88;100.00;77179.00;5056228;28;20397;-84
2023/03/27 03:29:21;;;;;;;8.90;1.52;;;;;;;-148.88;100.00;77174.94;5059444;28;20046;-85
2023/03/27 03:31:52;;;;;;;6.72;2.05;;;;;;;-148.88;100.00;77183.06;5060987;28;20056;-84
2023/03/27 03:34:18;;;;;;;3.17;0.98;;;;;;;-148.88;100.00;77181.03;5055145;28;20124;-82
2023/03/27 03:36:47;;;;;;;5.70;1.50;;;;;;;-148.88;100.00;77189.16;5054212;28;20063;-84
2023/03/27 03:39:14;;;;;;;9.18;1.63;;;;;;;-148.88;100.00;77185.09;5054021;28;20032;-84
2023/03/27 03:41:40;;;;;;;9.50;1.70;;;;;;;-148.88;100.00;77193.22;5054086;28;20104;-84
2023/03/27 03:44:06;;;;;;;7.07;1.52;;;;;;;-148.88;100.00;77191.19;5053282;28;20036;-82
2023/03/27 03:46:33;;;;;;;9.15;1.67;;;;;;;-148.88;100.00;77211.53;5053980;28;20021;-83
2023/03/27 03:49:04;;;;;;;10.63;1.80;;;;;;;-148.88;100.00;77215.59;5053560;28;20033;-83
2023/03/27 03:51:30;;;;;;;6.00;1.30;;;;;;;-148.88;100.00;77227.78;5051966;28;20372;-83
2023/03/27 03:53:56;;;;;;;6.03;1.52;;;;;;;-148.88;100.00;77235.91;5052594;28;20040;-85
2023/03/27 03:56:23;;;;;;;10.15;2.38;;;;;;;-148.88;100.00;77229.81;5053318;28;20419;-85
2023/03/27 03:58:48;;;;;;;3.03;1.85;;;;;;;-148.88;100.00;77231.84;5035297;28;20444;-82
2023/03/27 04:01:14;;;;;;;5.60;1.48;;;;;;;-148.88;100.00;77250.13;5050971;28;20035;-82
2023/03/27 04:03:40;;;;;;;10.95;1.75;;;;;;;-148.88;100.00;77248.09;5056916;28;20025;-84
2023/03/27 04:06:06;;;;;;;7.32;2.22;;;;;;;-148.88;100.00;77248.09;5058506;28;20033;-83
2023/03/27 04:08:33;;;;;;;12.10;1.77;;;;;;;-148.88;100.00;77235.91;5054052;28;20025;-85
2023/03/27 04:10:58;;;;;;;7.47;1.55;;;;;;;-148.88;100.00;77239.97;5052728;28;20082;-85
2023/03/27 04:13:24;;;;;;;5.53;1.38;;;;;;;-148.88;100.00;77252.16;5056557;28;20363;-84
2023/03/27 04:15:51;;;;;;;9.48;1.50;;;;;;;-148.88;100.00;77248.09;5056963;28;20032;-83
2023/03/27 04:18:18;;;;;;;9.95;2.28;;;;;;;-148.88;100.00;77248.09;5056139;28;20032;-84
2023/03/27 04:20:48;;;;;;;8.48;1.77;;;;;;;-148.88;100.00;77246.06;5055210;28;20040;-84
2023/03/27 04:23:17;;;;;;;4.88;1.27;;;;;;;-148.88;100.00;77227.78;5054219;28;20056;-84
2023/03/27 04:25:45;;;;;;;15.80;2.28;;;;;;;-148.88;100.00;77252.16;5055264;28;20036;-84
2023/03/27 04:28:15;;;;;;;7.72;1.90;;;;;;;-148.88;100.00;77248.09;5054644;28;20082;-84
2023/03/27 04:30:42;;;;;;;8.90;1.45;;;;;;;-148.88;100.00;77248.09;5053022;28;20031;-85
2023/03/27 04:33:17;;;;;;;8.73;1.70;;;;;;;-148.88;100.00;77264.34;5054340;28;20457;-85
2023/03/27 04:35:44;;;;;;;5.93;1.48;;;;;;;-148.88;100.00;77274.50;5061487;28;20033;-84
2023/03/27 04:38:10;;;;;;;6.05;1.70;;;;;;;-148.88;100.00;77264.34;5061354;28;20040;-84
2023/03/27 04:40:37;;;;;;;8.65;1.52;;;;;;;-148.88;100.00;77280.59;5051216;28;20029;-84
2023/03/27 04:43:02;;;;;;;12.40;1.80;;;;;;;-148.88;100.00;77278.56;5052126;28;20341;-83
2023/03/27 04:45:28;;;;;;;7.85;1.40;;;;;;;-148.88;100.00;77284.66;5051534;28;20021;-83
2023/03/27 04:47:53;;;;;;;10.90;1.45;;;;;;;-148.88;100.00;77296.88;5051448;28;20024;-83
2023/03/27 04:50:18;;;;;;;6.80;1.40;;;;;;;-148.88;100.00;77286.69;5051574;28;20128;-83
2023/03/27 04:52:46;;;;;;;10.13;2.17;;;;;;;-148.88;100.00;77292.81;5051711;28;20026;-83
2023/03/27 04:55:11;;;;;;;13.25;2.00;;;;;;;-148.88;100.00;77296.88;5051128;28;20025;-83
2023/03/27 04:57:40;;;;;;;12.20;1.85;;;;;;;-148.88;100.00;77288.72;5052202;28;20379;-82
2023/03/27 05:00:15;;;;;;;11.00;2.13;;;;;;;-148.88;100.00;77298.91;5064573;28;20032;-84
2023/03/27 05:02:41;;;;;;;4.78;1.70;;;;;;;-148.88;100.00;77296.88;5054979;28;20024;-84
2023/03/27 05:05:07;;;;;;;9.48;2.08;;;;;;;-148.88;100.00;77298.91;5053691;28;20029;-82
2023/03/27 05:07:33;;;;;;;7.88;2.65;;;;;;;-148.88;100.00;77305.00;5037651;28;20048;-83
2023/03/27 05:09:59;;;;;;;13.85;2.58;;;;;;;-148.88;100.00;77300.94;5039081;28;20029;-83
2023/03/27 05:12:25;;;;;;;12.82;1.88;;;;;;;-148.88;100.00;77309.06;5035552;28;20024;-81
2023/03/27 05:14:50;;;;;;;11.48;1.80;;;;;;;-148.88;100.00;77313.13;5035725;28;20483;-83
2023/03/27 05:17:19;;;;;;;7.13;2.20;;;;;;;-148.88;100.00;77298.91;5036244;28;20021;-86
2023/03/27 05:20:00;;;;;;;8.50;1.80;;;;;;;-148.88;100.00;77292.81;5037064;28;20032;-89
2023/03/27 05:22:37;;;;;;;11.90;2.40;;;;;;;-148.88;100.00;77284.66;5037299;28;20013;-87
2023/03/27 05:25:03;;;;;;;17.85;2.25;;;;;;;-148.88;100.00;77292.81;5050566;28;20037;-87
2023/03/27 05:27:29;;;;;;;9.65;2.10;;;;;;;-148.88;100.00;77292.81;5054275;28;20039;-85
2023/03/27 05:29:58;;;;;;;6.57;1.73;;;;;;;-148.88;100.00;77305.00;5037344;28;20033;-87
2023/03/27 05:32:24;;;;;;;8.55;2.10;;;;;;;-148.88;100.00;77300.94;5051477;28;20112;-88
2023/03/27 05:34:53;;;;;;;10.80;2.25;;;;;;;-148.88;100.00;77292.81;5057313;28;20060;-87
2023/03/27 05:37:20;;;;;;;4.25;1.60;;;;;;;-148.88;100.00;77286.69;5059408;28;20025;-87
2023/03/27 05:39:45;;;;;;;8.48;2.10;;;;;;;-148.88;100.00;77288.72;5069543;28;20024;-87
2023/03/27 05:42:14;;;;;;;5.97;1.80;;;;;;;-148.88;100.00;77292.81;5057771;28;20074;-87
2023/03/27 05:44:44;;;;;;;7.53;1.77;;;;;;;-148.88;100.00;77298.91;5057159;28;20021;-88
2023/03/27 05:47:30;;;;;;;8.57;2.10;;;;;;;-148.88;100.00;77292.81;5056049;28;20032;-86
2023/03/27 05:49:55;;;;;;;4.38;1.75;;;;;;;-148.88;100.00;77288.72;5055402;28;20033;-87
2023/03/27 05:52:24;;;;;;;9.48;1.73;;;;;;;-148.88;100.00;77284.66;5056097;28;20028;-86
2023/03/27 05:54:52;;;;;;;7.63;3.00;;;;;;;-148.88;100.00;77296.88;5055231;28;20032;-86
2023/03/27 05:57:26;;;;;;;12.57;2.00;;;;;;;-148.88;100.00;77300.94;5055602;28;20035;-87
2023/03/27 05:59:52;;;;;;;6.55;2.22;;;;;;;-148.88;100.00;77294.84;5055215;28;20127;-87
2023/03/27 06:02:18;;;;;;;11.30;2.50;;;;;;;-148.88;100.00;77288.72;5055502;28;20021;-86
2023/03/27 06:04:44;;;;;;;8.50;2.10;;;;;;;-148.88;100.00;77300.94;5055223;28;20061;-88
2023/03/27 06:07:11;;;;;;;11.65;2.95;;;;;;;-148.88;100.00;77294.84;5054976;28;20448;-87
2023/03/27 06:09:37;;;;;;;6.80;2.30;;;;;;;-148.88;100.00;77296.88;5055412;28;20025;-88
2023/03/27 06:12:04;;;;;;;7.85;2.10;;;;;;;-148.88;100.00;77294.84;5052975;28;20033;-86
2023/03/27 06:14:30;;;;;;;7.38;2.33;;;;;;;-148.88;100.00;77300.94;5055155;28;20028;-87
2023/03/27 06:16:55;;;;;;;7.80;1.92;;;;;;;-148.88;100.00;77300.94;5055751;28;20025;-87
2023/03/27 06:19:23;;;;;;;15.32;1.80;;;;;;;-148.88;100.00;77300.94;5056050;28;20033;-88
2023/03/27 06:21:49;;;;;;;12.02;2.45;;;;;;;-148.88;100.00;77296.88;5056428;28;20032;-87
2023/03/27 06:24:15;;;;;;;13.05;2.83;;;;;;;-148.88;100.00;77294.84;5055704;28;20024;-87
2023/03/27 06:26:41;;;;;;;7.90;1.80;;;;;;;-148.88;100.00;77286.69;5056673;28;20024;-87
2023/03/27 06:29:07;;;;;;;13.25;1.77;;;;;;;-148.88;100.00;77282.63;5055146;28;20402;-88
2023/03/27 06:31:38;;;;;;;5.20;1.67;;;;;;;-148.88;100.00;77280.59;5054682;28;20397;-87
2023/03/27 06:34:03;;;;;;;8.45;1.50;;;;;;;-148.88;100.00;77276.53;5054744;28;20036;-87
2023/03/27 06:36:31;;;;;;;7.05;1.95;;;;;;;-148.88;100.00;77268.41;5055170;28;20029;-87
2023/03/27 06:38:56;;;;;;;7.68;1.48;;;;;;;-148.88;100.00;77264.34;5054731;28;20389;-87
2023/03/27 06:41:32;;;;;;;5.82;1.67;;;;;;;-148.88;100.00;77268.41;5054658;28;20423;-87
2023/03/27 06:43:58;;;;;;;4.20;2.00;;;;;;;-148.88;100.00;77268.41;5054278;28;20100;-86
2023/03/27 06:46:23;;;;;;;8.18;1.52;;;;;;;-148.88;100.00;77252.16;5055680;28;20380;-85
2023/03/27 06:48:49;;;;;;;4.68;1.63;;;;;;;-148.88;100.00;77244.03;5055691;28;20604;-87
2023/03/27 06:51:15;;;;;;;5.82;2.03;;;;;;;-148.88;100.00;77231.84;5053794;28;20025;-87
2023/03/27 06:53:41;;;;;;;7.50;1.90;;;;;;;-148.88;100.00;77239.97;5054882;28;20131;-87
2023/03/27 06:56:10;;;;;;;9.40;1.75;;;;;;;-148.88;100.00;77239.97;5054784;28;20024;-86
2023/03/27 06:58:36;;;;;;;10.50;2.15;;;;;;;-148.88;100.00;77254.19;5053887;28;20087;-86
2023/03/27 07:01:01;;;;;;;4.22;1.73;;;;;;;-148.88;100.00;77235.91;5054488;28;20021;-86
2023/03/27 07:03:27;;;;;;;11.52;2.63;;;;;;;-148.88;100.00;77231.84;5074801;28;20028;-86
2023/03/27 07:05:52;;;;;;;5.40;1.40;;;;;;;-148.88;100.00;77215.59;5055506;28;20125;-88
2023/03/27 07:08:18;;;;;;;7.90;1.73;;;;;;;-148.88;100.00;77211.53;5054690;28;20032;-87
2023/03/27 07:10:53;;;;;;;8.77;1.45;;;;;;;-148.88;100.00;77199.31;5054637;28;20552;-87
2023/03/27 07:13:18;;;;;;;5.00;1.65;;;;;;;-148.88;100.00;77207.47;5054189;28;20032;-87
2023/03/27 07:15:50;;;;;;;5.30;1.30;;;;;;;-148.88;100.00;77183.06;5050277;28;20037;-87
2023/03/27 07:18:16;;;;;;;11.75;1.75;;;;;;;-148.88;100.00;77172.91;5039429;28;20037;-86
2023/03/27 07:20:43;;;;;;;9.18;1.40;;;;;;;-148.88;100.00;77174.94;5050203;28;20353;-87
2023/03/27 07:23:25;;;;;;;3.50;1.23;;;;;;;-148.88;100.00;77174.94;5036240;28;20017;-86
2023/03/27 07:25:56;;;;;;;8.77;2.50;;;;;;;-148.88;100.00;77179.00;5034341;28;20021;-85
2023/03/27 07:28:21;;;;;;;8.95;1.85;;;;;;;-148.88;100.00;77166.81;5034227;28;20060;-86
2023/03/27 07:30:57;;;;;;;7.25;1.40;;;;;;;-148.88;100.00;77166.81;5034285;28;20037;-86
2023/03/27 07:33:23;;;;;;;6.75;1.60;;;;;;;-148.88;100.00;77150.56;5032473;28;20029;-85
2023/03/27 07:35:49;;;;;;;8.18;2.13;;;;;;;-148.88;100.00;77162.75;5034045;28;20075;-85
2023/03/27 07:38:16;;;;;;;5.05;1.55;;;;;;;-148.88;100.00;77144.47;5032497;28;20377;-85
2023/03/27 07:40:43;;;;;;;7.28;1.77;;;;;;;-148.88;100.00;77118.06;5032538;28;20187;-85
2023/03/27 07:43:08;;;;;;;4.90;1.33;;;;;;;-148.88;100.00;77120.09;5032712;28;20018;-84
2023/03/27 07:45:43;;;;;;;4.07;1.30;;;;;;;-148.88;100.00;77105.84;5032064;28;20068;-85
2023/03/27 07:48:16;;;;;;;10.00;1.55;;;;;;;-148.88;99.46;77087.56;5032226;28;20104;-85
2023/03/27 07:50:41;;;;;;;6.57;1.23;;;;;;;-148.88;98.65;77077.41;5032876;28;20083;-84
2023/03/27 07:53:07;;;;;;;7.75;1.38;;;;;;;-148.88;97.59;77085.53;5032222;28;20030;-85
2023/03/27 07:55:36;;;;;;;8.43;1.48;;;;;;;-148.88;98.92;77067.25;5031893;28;20049;-85
2023/03/27 07:58:05;;;;;;;3.63;1.65;;;;;;;-148.88;97.39;77048.97;5032118;28;20108;-85
2023/03/27 08:00:32;;;;;;;8.80;1.63;;;;;;;-148.88;96.89;77048.97;5032086;28;20029;-85
2023/03/27 08:03:06;;;;;;;4.88;1.52;;;;;;;-148.88;97.20;77053.03;5032259;28;20022;-85
2023/03/27 08:05:32;;;;;;;9.27;2.30;;;;;;;-148.88;98.07;77016.47;5032791;28;20037;-85
2023/03/27 08:07:58;;;;;;;6.57;1.70;;;;;;;-148.88;95.82;77012.41;5032366;28;20399;-85
2023/03/27 08:10:24;;;;;;;8.23;2.47;;;;;;;-148.88;93.94;77004.25;5033329;28;20021;-83
2023/03/27 08:12:50;;;;;;;5.28;1.95;;;;;;;-148.88;94.80;77026.63;5033258;28;20048;-85
2023/03/27 08:15:16;;;;;;;12.38;1.83;;;;;;;-148.88;94.92;77044.91;5035992;28;20025;-84
2023/03/27 08:17:41;;;;;;;3.03;1.40;;;;;;;-148.88;95.76;77063.19;5035462;28;20037;-85
2023/03/27 08:20:14;;;;;;;5.78;1.00;;;;;;;-148.88;96.64;77061.16;5038240;28;20020;-84
2023/03/27 08:22:40;;;;;;;4.25;1.38;;;;;;;-148.88;95.41;77073.34;5057307;28;20084;-84
2023/03/27 08:25:07;;;;;;;4.15;1.42;;;;;;;-148.88;94.18;77081.47;5056231;28;20056;-84
2023/03/27 08:27:36;;;;;;;4.32;1.10;;;;;;;-148.88;92.68;77109.94;5055719;28;20093;-84
2023/03/27 08:30:03;;;;;;;4.47;1.17;;;;;;;-148.88;94.77;77114.00;5053821;28;20351;-84
2023/03/27 08:32:28;;;;;;;4.10;1.40;;;;;;;-148.88;96.44;77142.44;5054111;28;20037;-85
2023/03/27 08:34:54;;;;;;;3.55;0.80;;;;;;;-148.88;97.02;77160.72;5054373;28;20029;-85
2023/03/27 08:37:19;;;;;;;8.15;1.42;;;;;;;-148.88;96.49;77130.25;5057740;28;20029;-84
2023/03/27 08:39:51;;;;;;;3.47;1.05;;;;;;;-148.88;95.66;77065.22;5058156;28;20021;-83
2023/03/27 08:42:20;;;;;;;9.68;1.20;;;;;;;-148.88;94.67;77044.91;5057281;28;20024;-83
2023/03/27 08:44:47;;;;;;;4.05;1.15;;;;;;;-148.88;95.34;77004.25;5072381;28;20502;-85
2023/03/27 08:47:32;;;;;;;3.83;1.13;;;;;;;-148.88;92.24;76973.78;5058232;28;20056;-85
2023/03/27 08:50:01;;;;;;;3.17;1.17;;;;;;;-148.88;90.37;76957.53;5059036;28;20025;-85
2023/03/27 08:52:31;;;;;;;9.48;1.02;;;;;;;-148.88;88.43;76979.88;5059010;28;20096;-85
2023/03/27 08:55:05;;;;;;;1.85;1.00;;;;;;;-148.88;88.64;76971.75;5057370;28;20039;-87
2023/03/27 08:57:33;;;;;;;5.60;1.40;;;;;;;-148.88;86.74;76967.69;5057313;28;20029;-84
2023/03/27 09:00:08;;;;;;;2.13;0.82;;;;;;;-148.88;88.04;76951.44;5057696;28;20037;-86
2023/03/27 09:02:44;;;;;;;3.53;0.95;;;;;;;-148.88;86.74;76927.06;5057783;28;20387;-85
2023/03/27 09:05:52;;;;;;;3.90;1.10;;;;;;;-148.88;85.76;76916.91;5056925;28;20120;-85
2023/03/27 09:08:45;;;;;;;6.47;1.35;;;;;;;-148.88;83.06;76923.00;4998413;28;20066;-86
2023/03/27 09:11:26;;;;;;;2.75;0.77;;;;;;;-148.88;83.02;76870.16;5059064;28;20029;-86
2023/03/27 09:13:52;;;;;;;5.35;1.20;;;;;;;-148.88;81.19;76882.34;5056301;28;20051;-86
2023/03/27 09:16:25;;;;;;;2.40;0.90;;;;;;;-148.88;80.35;76841.72;5073895;28;20339;-86
2023/03/27 09:19:11;;;;;;;3.47;1.10;;;;;;;-148.88;78.49;76821.41;5056003;28;20029;-87
2023/03/27 09:21:44;;;;;;;5.13;0.85;;;;;;;-148.88;78.08;76825.47;5056718;28;20112;-84
2023/03/27 09:24:26;;;;;;;5.45;1.05;;;;;;;-148.88;78.31;76788.91;5057076;28;20031;-85
2023/03/27 09:26:53;;;;;;;2.55;1.10;;;;;;;-148.88;81.10;76772.66;5057144;28;20029;-86
2023/03/27 09:29:23;;;;;;;3.72;0.80;;;;;;;-148.88;75.99;76803.13;5055806;28;20036;-86
2023/03/27 09:31:51;;;;;;;3.92;0.70;;;;;;;-148.88;76.23;76839.69;5056906;28;20051;-85
2023/03/27 09:34:31;;;;;;;4.82;1.02;;;;;;;-148.88;72.79;76862.03;5057608;28;20117;-86
2023/03/27 09:36:58;;;;;;;4.55;0.90;;;;;;;-148.88;77.43;76817.34;5057357;28;20050;-84
2023/03/27 09:39:32;;;;;;;2.55;0.47;;;;;;;-148.88;75.80;76857.97;5057065;28;20048;-86
2023/03/27 09:42:05;;;;;;;3.65;0.80;;;;;;;-148.88;74.42;76805.16;5055836;28;20075;-85
2023/03/27 09:44:35;;;;;;;3.65;0.60;;;;;;;-148.88;72.45;76784.84;5056062;28;20464;-85
2023/03/27 09:47:21;;;;;;;1.90;0.70;;;;;;;-148.88;73.65;76766.56;5054881;28;20032;-87
2023/03/27 09:50:19;;;;;;;1.13;0.50;;;;;;;-148.88;76.26;76734.03;5054690;28;20075;-86
2023/03/27 09:52:45;;;;;;;5.53;0.93;;;;;;;-148.88;71.74;76809.22;5046915;28;20033;-85
2023/03/27 09:55:29;;;;;;;3.13;0.60;;;;;;;-148.88;74.76;76758.41;5054286;28;20363;-85
2023/03/27 09:58:17;;;;;;;4.68;0.70;;;;;;;-148.88;70.58;76746.22;5056197;28;20036;-85
2023/03/27 10:00:43;;;;;;;5.35;0.73;;;;;;;-148.88;72.00;76648.72;5054677;28;20029;-86
2023/03/27 10:03:17;;;;;;;3.50;0.80;;;;;;;-148.88;68.65;76729.97;5055070;28;20489;-86
2023/03/27 10:06:08;;;;;;;4.32;0.98;;;;;;;-148.88;67.15;76729.97;5057245;28;20037;-86
2023/03/27 10:08:54;;;;;;;5.35;0.77;;;;;;;-148.88;66.71;76695.44;5055280;28;20394;-86
2023/03/27 10:11:26;;;;;;;4.95;0.98;;;;;;;-148.88;66.00;76618.25;5054690;28;20017;-86
2023/03/27 10:13:52;;;;;;;4.57;1.08;;;;;;;-148.88;61.21;76608.09;5055343;28;20487;-87
2023/03/27 10:16:26;;;;;;;5.72;0.90;;;;;;;-148.88;65.06;76703.56;5055398;28;20379;-86
2023/03/27 10:18:55;;;;;;;4.18;1.02;;;;;;;-148.88;66.49;76727.94;5055248;28;20021;-85
2023/03/27 10:21:41;;;;;;;3.70;0.93;;;;;;;-148.88;62.30;76707.63;5055898;28;20029;-85
2023/03/27 10:24:15;;;;;;;6.15;1.67;;;;;;;-148.88;61.52;76746.22;5054840;28;20039;-85
2023/03/27 10:26:41;;;;;;;5.45;0.82;;;;;;;-148.88;62.72;76801.09;5055152;28;20082;-87
2023/03/27 10:29:37;;;;;;;4.32;0.90;;;;;;;-148.88;62.45;76795.00;5053691;28;20032;-86
2023/03/27 10:32:13;;;;;;;2.92;0.88;;;;;;;-148.88;65.98;76624.34;5057964;28;20027;-84
2023/03/27 10:34:51;;;;;;;4.88;1.08;;;;;;;-148.88;62.75;76685.28;5056716;28;20021;-86
2023/03/27 10:37:28;;;;;;;5.05;1.13;;;;;;;-148.88;62.75;76729.97;5055268;28;20028;-86
2023/03/27 10:39:58;;;;;;;1.67;0.80;;;;;;;-148.88;62.51;76740.13;5054289;28;20028;-87
2023/03/27 10:42:26;;;;;;;4.90;0.77;;;;;;;-148.88;61.57;76770.63;5055748;28;20107;-86
2023/03/27 10:45:00;;;;;;;4.22;0.85;;;;;;;-148.88;61.19;76772.66;5055445;28;20522;-85
2023/03/27 10:47:30;;;;;;;7.18;1.08;;;;;;;-148.88;61.82;76786.88;5055890;28;20127;-86
2023/03/27 10:50:20;;;;;;;4.60;0.85;;;;;;;-148.88;63.86;76790.94;5056830;28;20039;-90
2023/03/27 10:52:48;;;;;;;6.45;0.95;;;;;;;-148.88;65.42;76817.34;5055428;28;20434;-87
2023/03/27 10:55:47;;;;;;;6.40;1.15;;;;;;;-148.88;67.71;76849.84;5054453;28;20079;-85
2023/03/27 10:58:41;;;;;;;5.15;0.80;;;;;;;-148.88;68.93;76892.53;5055128;28;20159;-85
2023/03/27 11:01:30;;;;;;;5.15;0.80;;;;;;;-148.88;75.43;76914.88;5056631;28;20025;-84
2023/03/27 11:04:20;;;;;;;4.38;1.05;;;;;;;-148.88;82.00;76979.88;5053955;28;20025;-83
2023/03/27 11:06:49;;;;;;;6.13;1.55;;;;;;;-148.88;86.97;77020.53;5075674;28;20031;-84
2023/03/27 11:09:35;;;;;;;2.92;1.00;;;;;;;-148.88;92.48;77044.91;5058259;28;20463;-84
2023/03/27 11:12:13;;;;;;;7.13;1.00;;;;;;;-148.88;93.99;76967.69;5059618;28;20036;-86
2023/03/27 11:14:58;;;;;;;7.28;0.90;;;;;;;-148.88;90.24;76847.81;5077395;28;20021;-86
2023/03/27 11:17:29;;;;;;;5.25;0.90;;;;;;;-148.88;92.03;76723.88;5058675;28;20024;-86
2023/03/27 11:20:06;;;;;;;4.70;0.80;;;;;;;-148.88;79.56;76681.22;5059894;28;20024;-85
2023/03/27 11:22:38;;;;;;;1.65;0.63;;;;;;;-148.88;86.53;76687.31;5058483;28;20028;-86
2023/03/27 11:25:31;;;;;;;2.22;0.82;;;;;;;-148.88;85.44;76652.78;5058526;28;20025;-85
2023/03/27 11:28:10;;;;;;;4.55;0.80;;;;;;;-148.88;88.33;76748.25;5057789;28;20031;-86
2023/03/27 11:30:44;;;;;;;4.18;0.75;;;;;;;-148.88;92.91;76902.69;5058066;28;20024;-85
2023/03/27 11:33:31;;;;;;;7.45;0.95;;;;;;;-148.88;91.57;76943.31;5075523;28;20027;-85
2023/03/27 11:36:25;;;;;;;4.45;0.98;;;;;;;-148.88;89.21;76949.41;5057615;28;20037;-87
2023/03/27 11:39:10;;;;;;;7.20;1.63;;;;;;;-148.88;80.74;76788.91;5056433;28;20031;-85